createdAt,value
2019-03-24T00:01:50.803Z,4.10
2019-03-24T00:04:21.913Z,4.11
2019-03-24T00:06:53.130Z,4.05
2019-03-24T00:09:24.366Z,4.05
2019-03-24T00:11:55.566Z,4.04
2019-03-24T00:14:26.871Z,4.02
2019-03-24T00:16:57.878Z,4.03
2019-03-24T00:19:29.064Z,4.01
2019-03-24T00:22:00.194Z,3.93
2019-03-24T00:24:31.486Z,3.87
2019-03-24T00:27:02.621Z,3.83
2019-03-24T00:29:33.671Z,3.82
2019-03-24T00:32:04.622Z,3.75
2019-03-24T00:34:35.681Z,3.65
2019-03-24T00:37:06.765Z,3.62
2019-03-24T00:39:38.052Z,3.62
2019-03-24T00:42:09.014Z,3.56
2019-03-24T00:44:39.971Z,3.53
2019-03-24T00:47:11.047Z,3.57
2019-03-24T00:49:42.295Z,3.61
2019-03-24T00:52:13.164Z,3.63
2019-03-24T00:54:44.679Z,3.56
2019-03-24T00:57:16.005Z,3.46
2019-03-24T00:59:47.028Z,3.36
2019-03-24T01:02:18.100Z,3.35
2019-03-24T01:04:49.246Z,3.37
2019-03-24T01:07:20.391Z,3.31
2019-03-24T01:09:51.316Z,3.22
2019-03-24T01:12:22.752Z,3.14
2019-03-24T01:14:54.017Z,3.18
2019-03-24T01:17:24.927Z,3.21
2019-03-24T01:19:56.181Z,3.18
2019-03-24T01:22:27.318Z,3.14
2019-03-24T01:24:58.525Z,3.16
2019-03-24T01:27:29.704Z,3.04
2019-03-24T01:30:00.820Z,2.94
2019-03-24T01:32:33.037Z,2.90
2019-03-24T01:35:04.294Z,2.81
2019-03-24T01:37:35.474Z,2.70
2019-03-24T01:40:07.732Z,2.70
2019-03-24T01:42:38.787Z,2.69
2019-03-24T01:45:11.726Z,2.67
2019-03-24T01:47:42.583Z,2.68
2019-03-24T01:50:13.496Z,2.65
2019-03-24T01:52:44.345Z,2.57
2019-03-24T01:55:15.927Z,2.62
2019-03-24T01:57:46.855Z,2.60
2019-03-24T02:00:19.075Z,2.60
2019-03-24T02:02:50.110Z,2.61
2019-03-24T02:05:21.265Z,2.59
2019-03-24T02:07:51.976Z,2.59
2019-03-24T02:10:23.036Z,2.59
2019-03-24T02:12:54.331Z,2.61
2019-03-24T02:15:25.216Z,2.57
2019-03-24T02:17:56.237Z,2.51
2019-03-24T02:20:27.255Z,2.40
2019-03-24T02:22:58.236Z,2.37
2019-03-24T02:25:29.854Z,2.28
2019-03-24T02:28:00.821Z,2.25
2019-03-24T02:30:31.948Z,2.29
2019-03-24T02:33:03.098Z,2.30
2019-03-24T02:35:34.516Z,2.27
2019-03-24T02:38:05.555Z,2.23
2019-03-24T02:40:36.516Z,2.14
2019-03-24T02:43:07.759Z,2.04
2019-03-24T02:45:39.158Z,1.99
2019-03-24T02:48:10.397Z,1.97
2019-03-24T02:50:41.450Z,1.98
2019-03-24T02:53:12.667Z,1.98
2019-03-24T02:55:43.851Z,1.99
2019-03-24T02:58:14.896Z,1.97
2019-03-24T03:00:45.958Z,1.89
2019-03-24T03:03:18.373Z,1.84
2019-03-24T03:05:49.525Z,1.79
2019-03-24T03:08:20.394Z,1.75
2019-03-24T03:10:51.319Z,1.70
2019-03-24T03:13:22.335Z,1.70
2019-03-24T03:15:53.145Z,1.71
2019-03-24T03:18:23.878Z,1.66
2019-03-24T03:20:54.874Z,1.64
2019-03-24T03:23:25.661Z,1.65
2019-03-24T03:25:56.397Z,1.60
2019-03-24T03:28:27.298Z,1.58
2019-03-24T03:30:58.381Z,1.48
2019-03-24T03:33:29.755Z,1.47
2019-03-24T03:36:00.611Z,1.47
2019-03-24T03:38:31.666Z,1.49
2019-03-24T03:41:03.149Z,1.48
2019-03-24T03:43:34.980Z,1.55
2019-03-24T03:46:06.198Z,1.55
2019-03-24T03:48:36.870Z,1.51
2019-03-24T03:51:07.872Z,1.50
2019-03-24T03:53:38.854Z,1.40
2019-03-24T03:56:10.818Z,1.30
2019-03-24T03:58:41.679Z,1.31
2019-03-24T04:01:12.615Z,1.30
2019-03-24T04:03:43.288Z,1.29
2019-03-24T04:06:14.610Z,1.22
2019-03-24T04:08:45.695Z,1.15
2019-03-24T04:11:16.968Z,1.14
2019-03-24T04:13:47.582Z,1.06
2019-03-24T04:16:18.366Z,1.05
2019-03-24T04:18:49.401Z,1.08
2019-03-24T04:21:20.513Z,1.11
2019-03-24T04:23:51.190Z,1.11
2019-03-24T04:26:22.185Z,1.06
2019-03-24T04:28:53.197Z,0.99
2019-03-24T04:31:24.238Z,0.90
2019-03-24T04:33:55.178Z,0.95
2019-03-24T04:36:26.101Z,0.99
2019-03-24T04:38:56.914Z,1.04
2019-03-24T04:41:28.146Z,1.05
2019-03-24T04:43:59.270Z,0.97
2019-03-24T04:46:30.616Z,0.95
2019-03-24T04:49:01.590Z,0.97
2019-03-24T04:51:33.182Z,0.93
2019-03-24T04:54:04.061Z,0.89
2019-03-24T04:56:35.170Z,0.87
2019-03-24T04:59:06.254Z,0.86
2019-03-24T05:01:37.505Z,0.87
2019-03-24T05:04:08.688Z,0.84
2019-03-24T05:06:39.868Z,0.78
2019-03-24T05:09:10.892Z,0.76
2019-03-24T05:11:42.019Z,0.76
2019-03-24T05:14:12.965Z,0.75
2019-03-24T05:16:43.846Z,0.83
2019-03-24T05:19:14.902Z,0.85
2019-03-24T05:21:45.862Z,0.82
2019-03-24T05:24:16.931Z,0.78
2019-03-24T05:26:49.894Z,0.75
2019-03-24T05:29:20.752Z,0.76
2019-03-24T05:31:51.638Z,0.86
2019-03-24T05:34:22.877Z,0.91
2019-03-24T05:36:53.911Z,0.90
2019-03-24T05:39:24.922Z,0.84
2019-03-24T05:41:56.325Z,0.85
2019-03-24T05:44:27.340Z,0.93
2019-03-24T05:46:59.112Z,0.98
2019-03-24T05:49:30.065Z,1.01
2019-03-24T05:52:01.266Z,1.08
2019-03-24T05:54:32.389Z,1.05
2019-03-24T05:57:03.465Z,1.07
2019-03-24T05:59:34.451Z,1.09
2019-03-24T06:02:06.698Z,1.20
2019-03-24T06:04:37.979Z,1.30
2019-03-24T06:07:09.013Z,1.39
2019-03-24T06:09:40.113Z,1.50
2019-03-24T06:12:11.262Z,1.60
2019-03-24T06:14:42.428Z,1.72
2019-03-24T06:17:13.939Z,1.83
2019-03-24T06:19:44.885Z,1.91
2019-03-24T06:22:15.695Z,2.06
2019-03-24T06:24:46.569Z,2.33
2019-03-24T06:27:17.457Z,2.43
2019-03-24T06:29:48.562Z,2.56
2019-03-24T06:32:19.807Z,2.76
2019-03-24T06:34:50.957Z,2.94
2019-03-24T06:37:21.922Z,3.09
2019-03-24T06:39:52.840Z,3.28
2019-03-24T06:42:23.753Z,3.43
2019-03-24T06:44:54.733Z,3.62
2019-03-24T06:47:26.076Z,3.86
2019-03-24T06:49:57.149Z,4.09
2019-03-24T06:52:28.446Z,4.23
2019-03-24T06:54:59.428Z,4.48
2019-03-24T06:57:30.612Z,4.71
2019-03-24T07:00:04.186Z,4.99
2019-03-24T07:02:35.868Z,5.21
2019-03-24T07:05:06.830Z,5.46
2019-03-24T07:07:38.053Z,5.66
2019-03-24T07:10:09.647Z,5.93
2019-03-24T07:12:40.393Z,6.18
2019-03-24T07:15:11.720Z,6.43
2019-03-24T07:17:42.834Z,6.73
2019-03-24T07:20:13.847Z,6.90
2019-03-24T07:22:45.963Z,7.18
2019-03-24T07:25:17.191Z,7.32
2019-03-24T07:27:48.488Z,7.74
2019-03-24T07:30:20.622Z,8.06
2019-03-24T07:32:51.843Z,8.36
2019-03-24T07:35:23.003Z,8.61
2019-03-24T07:37:54.128Z,9.00
2019-03-24T07:40:25.304Z,9.35
2019-03-24T07:42:56.008Z,9.70
2019-03-24T07:45:27.037Z,10.04
2019-03-24T07:47:58.138Z,10.52
2019-03-24T07:50:30.019Z,10.94
2019-03-24T07:53:01.234Z,11.40
2019-03-24T07:55:32.504Z,12.01
2019-03-24T07:58:03.601Z,12.79
2019-03-24T08:00:35.974Z,13.45
2019-03-24T08:03:06.835Z,13.86
2019-03-24T08:05:38.079Z,14.12
2019-03-24T08:08:09.456Z,14.88
2019-03-24T08:10:42.143Z,15.22
2019-03-24T08:13:12.919Z,15.37
2019-03-24T08:15:44.033Z,15.76
2019-03-24T08:18:14.877Z,16.36
2019-03-24T08:20:45.551Z,16.95
2019-03-24T08:23:16.216Z,16.76
2019-03-24T08:25:47.275Z,16.95
2019-03-24T08:28:18.519Z,17.96
2019-03-24T08:30:49.829Z,18.82
2019-03-24T08:33:20.881Z,19.53
2019-03-24T08:35:54.089Z,20.11
2019-03-24T08:38:25.378Z,20.98
2019-03-24T08:40:56.241Z,21.39
2019-03-24T08:43:27.108Z,21.94
2019-03-24T08:45:59.576Z,22.23
2019-03-24T08:48:40.372Z,22.07
2019-03-24T08:51:03.131Z,21.66
2019-03-24T08:53:34.413Z,22.05
2019-03-24T08:56:06.259Z,21.47
2019-03-24T08:58:37.452Z,21.58
2019-03-24T09:01:09.291Z,22.87
2019-03-24T09:03:40.185Z,23.69
2019-03-24T09:06:11.472Z,24.41
2019-03-24T09:08:42.408Z,24.64
2019-03-24T09:11:13.467Z,24.91
2019-03-24T09:13:45.919Z,25.09
2019-03-24T09:16:17.314Z,26.13
2019-03-24T09:18:52.977Z,26.13
2019-03-24T09:21:20.978Z,26.62
2019-03-24T09:23:52.335Z,26.34
2019-03-24T09:26:24.260Z,26.96
2019-03-24T09:28:55.424Z,28.16
2019-03-24T09:31:26.766Z,27.90
2019-03-24T09:33:59.255Z,28.22
2019-03-24T09:36:30.183Z,29.20
2019-03-24T09:39:01.111Z,29.00
2019-03-24T09:41:33.362Z,28.62
2019-03-24T09:44:04.468Z,28.92
2019-03-24T09:46:36.511Z,29.84
2019-03-24T09:49:07.815Z,29.76
2019-03-24T09:51:40.424Z,30.46
2019-03-24T09:54:12.413Z,30.40
2019-03-24T09:56:43.403Z,31.55
2019-03-24T09:59:14.381Z,31.58
2019-03-24T10:01:46.981Z,32.18
2019-03-24T10:04:18.206Z,32.66
2019-03-24T10:06:50.934Z,33.04
2019-03-24T10:09:21.861Z,32.67
2019-03-24T10:11:53.738Z,33.59
2019-03-24T10:14:25.900Z,33.05
2019-03-24T10:16:56.809Z,33.54
2019-03-24T10:19:27.753Z,34.31
2019-03-24T10:21:58.951Z,34.62
2019-03-24T10:24:30.131Z,35.21
2019-03-24T10:27:01.340Z,35.55
2019-03-24T10:29:33.790Z,36.02
2019-03-24T10:32:05.523Z,35.97
2019-03-24T10:34:35.255Z,36.13
2019-03-24T10:37:06.884Z,36.54
2019-03-24T10:39:38.432Z,35.87
2019-03-24T10:42:10.339Z,35.67
2019-03-24T10:44:41.498Z,35.90
2019-03-24T10:47:13.796Z,34.82
2019-03-24T10:49:46.833Z,34.76
2019-03-24T10:52:18.192Z,35.89
2019-03-24T10:54:49.123Z,36.76
2019-03-24T10:57:22.107Z,37.75
2019-03-24T10:59:53.539Z,38.44
2019-03-24T11:02:25.711Z,37.70
2019-03-24T11:04:56.864Z,36.54
2019-03-24T11:07:28.208Z,37.54
2019-03-24T11:09:59.174Z,38.63
2019-03-24T11:12:31.563Z,38.37
2019-03-24T11:15:02.779Z,36.92
2019-03-24T11:17:34.574Z,38.17
2019-03-24T11:20:06.715Z,39.11
2019-03-24T11:22:38.144Z,37.44
2019-03-24T11:25:10.788Z,37.92
2019-03-24T11:27:42.257Z,37.54
2019-03-24T11:30:16.169Z,38.15
2019-03-24T11:32:47.479Z,38.15
2019-03-24T11:35:18.652Z,39.06
2019-03-24T11:37:49.923Z,38.99
2019-03-24T11:40:21.015Z,39.56
2019-03-24T11:42:52.388Z,38.73
2019-03-24T11:45:23.479Z,35.79
2019-03-24T11:47:56.506Z,36.32
2019-03-24T11:50:27.680Z,37.24
2019-03-24T11:52:58.814Z,37.55
2019-03-24T11:55:30.003Z,37.47
2019-03-24T11:58:05.662Z,37.66
2019-03-24T12:00:36.444Z,38.56
2019-03-24T12:11:05.700Z,38.88
2019-03-24T12:13:37.198Z,38.66
2019-03-24T12:16:08.683Z,38.61
2019-03-24T12:18:39.895Z,38.96
2019-03-24T12:21:12.979Z,38.36
2019-03-24T12:23:44.229Z,38.50
2019-03-24T12:26:17.121Z,37.67
2019-03-24T12:28:48.406Z,37.15
2019-03-24T12:31:19.533Z,37.47
2019-03-24T12:33:50.887Z,37.90
2019-03-24T12:36:21.955Z,36.11
2019-03-24T12:38:53.289Z,37.03
2019-03-24T12:41:24.331Z,37.74
2019-03-24T12:43:55.573Z,37.42
2019-03-24T12:46:26.542Z,36.69
2019-03-24T12:48:57.803Z,37.03
2019-03-24T12:51:29.233Z,38.37
2019-03-24T12:54:00.321Z,38.62
2019-03-24T12:56:33.481Z,38.00
2019-03-24T12:59:04.932Z,36.60
2019-03-24T13:01:36.373Z,36.18
2019-03-24T13:04:07.891Z,36.64
2019-03-24T13:06:39.306Z,36.26
2019-03-24T13:09:10.391Z,36.61
2019-03-24T13:11:42.008Z,37.23
2019-03-24T13:14:13.348Z,36.85
2019-03-24T13:16:44.427Z,36.32
2019-03-24T13:19:15.627Z,36.00
2019-03-24T13:21:46.960Z,35.38
2019-03-24T13:24:18.105Z,35.73
2019-03-24T13:26:49.290Z,35.81
2019-03-24T13:29:20.519Z,34.66
2019-03-24T13:31:51.676Z,35.04
2019-03-24T13:34:22.955Z,35.25
2019-03-24T13:36:54.207Z,36.09
2019-03-24T13:39:25.191Z,36.31
2019-03-24T13:41:58.188Z,35.35
2019-03-24T13:44:29.515Z,34.09
2019-03-24T13:47:00.608Z,33.51
2019-03-24T13:49:33.527Z,33.65
2019-03-24T13:52:04.774Z,33.64
2019-03-24T13:54:36.130Z,33.80
2019-03-24T13:57:07.152Z,32.18
2019-03-24T13:59:38.214Z,32.91
2019-03-24T14:02:09.830Z,32.72
2019-03-24T14:04:40.944Z,30.61
2019-03-24T14:07:15.536Z,30.63
2019-03-24T14:09:46.959Z,30.83
2019-03-24T14:12:18.450Z,29.77
2019-03-24T14:14:49.649Z,28.76
2019-03-24T14:17:20.652Z,28.91
2019-03-24T14:19:51.835Z,28.46
2019-03-24T14:22:24.039Z,28.47
2019-03-24T14:24:55.102Z,28.65
2019-03-24T14:27:26.250Z,28.65
2019-03-24T14:29:57.532Z,29.22
2019-03-24T14:32:28.612Z,28.79
2019-03-24T14:35:00.272Z,28.53
2019-03-24T14:37:31.670Z,28.10
2019-03-24T14:40:05.882Z,27.91
2019-03-24T14:42:37.096Z,27.25
2019-03-24T14:45:09.401Z,25.81
2019-03-24T14:47:44.831Z,25.76
2019-03-24T14:50:16.545Z,25.80
2019-03-24T14:52:47.772Z,24.40
2019-03-24T14:55:19.104Z,24.17
2019-03-24T14:57:50.363Z,23.45
2019-03-24T15:00:30.282Z,23.84
2019-03-24T15:03:01.801Z,23.75
2019-03-24T15:05:33.304Z,23.70
2019-03-24T15:08:05.625Z,23.23
2019-03-24T15:10:38.151Z,23.28
2019-03-24T15:13:09.485Z,22.81
2019-03-24T15:15:40.992Z,22.97
2019-03-24T15:18:12.457Z,22.87
2019-03-24T15:20:44.024Z,22.61
2019-03-24T15:23:15.280Z,22.17
2019-03-24T15:25:46.615Z,21.64
2019-03-24T15:28:17.771Z,21.86
2019-03-24T15:30:50.365Z,21.49
2019-03-24T15:33:21.683Z,21.49
2019-03-24T15:35:54.082Z,21.29
2019-03-24T15:38:25.292Z,21.24
2019-03-24T15:40:56.511Z,21.11
2019-03-24T15:43:27.516Z,20.99
2019-03-24T15:45:58.884Z,20.56
2019-03-24T15:48:30.837Z,20.51
2019-03-24T15:51:02.086Z,19.76
2019-03-24T15:53:33.192Z,19.83
2019-03-24T15:56:04.503Z,19.42
2019-03-24T15:58:35.759Z,19.29
2019-03-24T16:01:08.716Z,19.27
2019-03-24T16:03:42.372Z,19.29
2019-03-24T16:06:13.311Z,19.19
2019-03-24T16:08:46.232Z,18.73
2019-03-24T16:11:17.829Z,18.76
2019-03-24T16:13:48.877Z,18.48
2019-03-24T16:16:19.976Z,18.48
2019-03-24T16:18:50.975Z,18.27
2019-03-24T16:21:28.073Z,18.32
2019-03-24T16:23:57.022Z,18.06
2019-03-24T16:26:28.685Z,17.73
2019-03-24T16:28:59.875Z,17.39
2019-03-24T16:31:30.924Z,17.16
2019-03-24T16:34:01.989Z,17.20
2019-03-24T16:36:36.052Z,17.18
2019-03-24T16:39:08.099Z,16.90
2019-03-24T16:41:42.052Z,16.69
2019-03-24T16:44:13.390Z,16.62
2019-03-24T16:46:44.586Z,16.47
2019-03-24T16:49:15.580Z,16.42
2019-03-24T16:51:46.827Z,16.20
2019-03-24T16:54:17.873Z,16.09
2019-03-24T16:56:49.075Z,16.09
2019-03-24T16:59:21.726Z,16.00
2019-03-24T17:01:52.958Z,15.55
2019-03-24T17:04:24.397Z,15.54
2019-03-24T17:06:55.991Z,15.15
2019-03-24T17:09:27.476Z,15.30
2019-03-24T17:11:58.709Z,15.11
2019-03-24T17:14:29.770Z,15.11
2019-03-24T17:17:00.896Z,14.95
2019-03-24T17:19:33.471Z,14.84
2019-03-24T17:22:04.984Z,14.82
2019-03-24T17:24:36.558Z,14.60
2019-03-24T17:27:08.501Z,14.41
2019-03-24T17:29:39.781Z,14.28
2019-03-24T17:32:11.356Z,14.20
2019-03-24T17:34:48.025Z,14.12
2019-03-24T17:37:19.109Z,13.97
2019-03-24T17:39:50.680Z,13.84
2019-03-24T17:42:22.899Z,13.71
2019-03-24T17:44:54.327Z,13.58
2019-03-24T17:47:25.448Z,13.35
2019-03-24T17:49:56.679Z,13.31
2019-03-24T17:52:27.886Z,13.24
2019-03-24T17:54:59.425Z,13.18
2019-03-24T17:57:30.881Z,13.05
2019-03-24T18:00:06.179Z,13.04
2019-03-24T18:02:38.056Z,12.91
2019-03-24T18:05:10.840Z,12.83
2019-03-24T18:07:42.043Z,12.69
2019-03-24T18:10:13.448Z,12.54
2019-03-24T18:12:45.045Z,12.48
2019-03-24T18:15:16.368Z,12.48
2019-03-24T18:17:47.627Z,12.41
2019-03-24T18:20:31.081Z,12.36
2019-03-24T18:23:02.755Z,12.29
2019-03-24T18:25:33.922Z,12.15
2019-03-24T18:28:05.543Z,12.02
2019-03-24T18:30:37.057Z,11.92
2019-03-24T18:33:08.735Z,11.87
2019-03-24T18:35:39.962Z,11.78
2019-03-24T18:38:11.332Z,11.58
2019-03-24T18:40:42.646Z,11.45
2019-03-24T18:43:13.762Z,11.06
2019-03-24T18:45:45.308Z,10.67
2019-03-24T18:48:16.910Z,10.86
2019-03-24T18:50:48.169Z,10.32
2019-03-24T18:53:19.362Z,10.22
2019-03-24T18:55:50.832Z,10.21
2019-03-24T18:58:22.133Z,10.32
2019-03-24T19:00:53.211Z,10.29
2019-03-24T19:03:24.479Z,10.36
2019-03-24T19:05:55.991Z,10.38
2019-03-24T19:08:27.264Z,10.43
2019-03-24T19:11:02.413Z,10.48
2019-03-24T19:13:35.937Z,10.41
2019-03-24T19:16:07.216Z,10.20
2019-03-24T19:18:38.692Z,10.23
2019-03-24T19:21:09.972Z,10.25
2019-03-24T19:23:41.978Z,10.18
2019-03-24T19:26:14.493Z,9.93
2019-03-24T19:28:46.930Z,9.76
2019-03-24T19:31:18.258Z,9.82
2019-03-24T19:33:49.846Z,9.63
2019-03-24T19:36:22.268Z,9.21
2019-03-24T19:38:53.859Z,9.06
2019-03-24T19:41:25.329Z,9.03
2019-03-24T19:43:56.648Z,8.90
2019-03-24T19:46:28.135Z,8.60
2019-03-24T19:48:59.719Z,8.62
2019-03-24T19:51:30.931Z,8.78
2019-03-24T19:54:03.961Z,8.67
2019-03-24T19:56:35.246Z,8.74
2019-03-24T19:59:06.837Z,8.62
2019-03-24T20:01:38.291Z,8.59
2019-03-24T20:04:09.731Z,8.63
2019-03-24T20:06:41.038Z,8.58
2019-03-24T20:09:12.206Z,8.61
2019-03-24T20:11:43.479Z,8.51
2019-03-24T20:14:14.749Z,8.24
2019-03-24T20:16:45.874Z,8.18
2019-03-24T20:19:17.291Z,8.21
2019-03-24T20:21:48.351Z,8.19
2019-03-24T20:24:19.390Z,8.11
2019-03-24T20:26:50.771Z,8.11
2019-03-24T20:29:22.509Z,8.08
2019-03-24T20:31:53.851Z,8.03
2019-03-24T20:34:26.778Z,8.01
2019-03-24T20:36:58.300Z,7.97
2019-03-24T20:39:29.922Z,7.97
2019-03-24T20:42:01.113Z,7.87
2019-03-24T20:44:32.468Z,7.80
2019-03-24T20:47:03.739Z,7.75
2019-03-24T20:49:36.703Z,7.63
2019-03-24T20:52:07.973Z,7.54
2019-03-24T20:54:40.784Z,7.43
2019-03-24T20:57:12.334Z,7.40
2019-03-24T20:59:43.561Z,7.40
2019-03-24T21:02:14.631Z,7.32
2019-03-24T21:04:47.076Z,7.33
2019-03-24T21:07:18.074Z,7.35
2019-03-24T21:09:49.266Z,7.34
2019-03-24T21:12:20.463Z,7.30
2019-03-24T21:14:53.134Z,7.28
2019-03-24T21:17:24.022Z,7.21
2019-03-24T21:19:57.008Z,7.18
2019-03-24T21:22:28.489Z,7.15
2019-03-24T21:25:00.357Z,7.10
2019-03-24T21:27:32.022Z,7.00
2019-03-24T21:30:03.351Z,6.98
2019-03-24T21:32:34.751Z,7.07
2019-03-24T21:35:06.025Z,7.13
2019-03-24T21:37:37.582Z,7.20
2019-03-24T21:40:09.523Z,7.28
2019-03-24T21:42:41.315Z,7.36
2019-03-24T21:45:12.024Z,7.45
2019-03-24T21:47:43.329Z,7.46
2019-03-24T21:50:14.675Z,7.38
2019-03-24T21:52:45.932Z,7.19
2019-03-24T21:55:17.251Z,7.06
2019-03-24T21:57:57.088Z,7.20
2019-03-24T22:00:33.400Z,7.34
2019-03-24T22:03:04.640Z,7.47
2019-03-24T22:05:37.060Z,7.54
2019-03-24T22:08:08.464Z,7.57
2019-03-24T22:10:39.647Z,7.56
2019-03-24T22:13:12.769Z,7.58
2019-03-24T22:15:44.054Z,7.56
2019-03-24T22:18:15.284Z,7.61
2019-03-24T22:20:49.050Z,7.61
2019-03-24T22:23:19.241Z,7.69
2019-03-24T22:25:50.354Z,7.77
2019-03-24T22:28:21.762Z,7.84
2019-03-24T22:30:54.499Z,7.87
2019-03-24T22:33:25.944Z,7.87
2019-03-24T22:35:56.968Z,7.83
2019-03-24T22:38:27.929Z,7.85
2019-03-24T22:40:59.066Z,7.80
2019-03-24T22:43:30.286Z,7.78
2019-03-24T22:46:03.261Z,7.82
2019-03-24T22:48:33.976Z,7.85
2019-03-24T22:51:05.273Z,7.91
2019-03-24T22:53:36.338Z,7.94
2019-03-24T22:56:07.424Z,7.93
2019-03-24T22:58:38.490Z,7.90
2019-03-24T23:01:09.909Z,7.92
2019-03-24T23:03:43.147Z,7.73
2019-03-24T23:06:14.398Z,7.83
2019-03-24T23:08:46.409Z,7.87
2019-03-24T23:11:17.826Z,7.95
2019-03-24T23:13:49.046Z,7.98
2019-03-24T23:16:20.107Z,7.98
2019-03-24T23:18:51.436Z,7.99
2019-03-24T23:21:22.622Z,8.04
2019-03-24T23:23:55.522Z,8.09
2019-03-24T23:26:26.418Z,7.86
2019-03-24T23:28:57.498Z,7.81
2019-03-24T23:31:28.334Z,7.94
2019-03-24T23:33:59.827Z,7.98
2019-03-24T23:36:30.929Z,7.99
2019-03-24T23:39:04.548Z,8.00
2019-03-24T23:41:35.495Z,8.03
2019-03-24T23:44:06.772Z,7.95
2019-03-24T23:46:37.834Z,8.03
2019-03-24T23:49:08.830Z,8.07
2019-03-24T23:51:40.167Z,8.09
2019-03-24T23:54:11.194Z,8.18
2019-03-24T23:56:42.193Z,8.20
2019-03-24T23:59:13.951Z,8.26
